Fond du Lac, Wisconsin
Current Conditions -  °F | °C
As of 11:53 PM on Thursday 30 Oct 2014 (Local Time) from KFLD Reporting Station
Overcast Overcast  
Wind Chill: 37°   Ceiling: 5000
Heat Index: 43°   Visibility: 10mi
Dew Point: 32°   Wind: 12mph
Humidity: 65%   Direction: 300°WNW
Pressure: 30.03"   Gusts: NA
Location:  43.77°N, 88.48°W
Report Text: KFLD 310453Z AUTO 30010KT 10SM FEW037 BKN050 OVC060 06/00 A3003 RMK AO2 SLP175 T00610000
Loading
Personal Weather Stations






























Interactive Weather Map
Tropical Storm Tracking
New forecast layout! Learn more

10-Day Weather Forecast

Advertisements
Track Severe Weather on mobile